< < Back
Terminal Aerodrome Forecast


Current Version              Previous Versions:   1  2  3  4  5  6  7  8  9  

Terminal Aerodrome Forecast

218
FTUS42 KTAE 280532
TAFABY
TAF
KABY 280532Z 2806/2906 25006KT P6SM SCT030
     FM282200 26007KT P6SM VCTS BKN050CB
     FM290200 VRB03KT P6SM BKN250=



Latest METAR

931
SAUS70 KWBC 290100 RRQ
MTRABY
METAR KABY 290053Z AUTO 20003KT 10SM SCT060 31/23 A2994 RMK AO2 SLP136
T03110228


USA.gov is the U.S. government's official web portal to all federal, state and local government web resources and services.